sensor_id;sensor_type;location;lat;lon;timestamp;P1;durP1;ratioP1;P2;durP2;ratioP2
44764;SDS011;30484;52.382;5.260;2023-09-18T00:01:25;60.53;;;35.97;;
44764;SDS011;30484;52.382;5.260;2023-09-18T00:03:55;54.53;;;35.38;;
44764;SDS011;30484;52.382;5.260;2023-09-18T00:06:24;59.20;;;36.25;;
44764;SDS011;30484;52.382;5.260;2023-09-18T00:08:54;59.95;;;37.17;;
44764;SDS011;30484;52.382;5.260;2023-09-18T00:11:22;57.55;;;35.47;;
44764;SDS011;30484;52.382;5.260;2023-09-18T00:13:50;48.58;;;32.17;;
44764;SDS011;30484;52.382;5.260;2023-09-18T00:16:19;59.90;;;35.47;;
44764;SDS011;30484;52.382;5.260;2023-09-18T00:18:47;51.90;;;32.42;;
44764;SDS011;30484;52.382;5.260;2023-09-18T00:21:16;48.70;;;32.47;;
44764;SDS011;30484;52.382;5.260;2023-09-18T00:23:44;51.35;;;33.28;;
44764;SDS011;30484;52.382;5.260;2023-09-18T00:26:14;59.05;;;35.58;;
44764;SDS011;30484;52.382;5.260;2023-09-18T00:28:43;53.63;;;34.58;;
44764;SDS011;30484;52.382;5.260;2023-09-18T00:31:12;55.60;;;33.75;;
44764;SDS011;30484;52.382;5.260;2023-09-18T00:33:40;54.25;;;33.42;;
44764;SDS011;30484;52.382;5.260;2023-09-18T00:36:08;58.00;;;35.40;;
44764;SDS011;30484;52.382;5.260;2023-09-18T00:38:37;57.70;;;33.53;;
44764;SDS011;30484;52.382;5.260;2023-09-18T00:41:06;56.85;;;34.00;;
44764;SDS011;30484;52.382;5.260;2023-09-18T00:43:35;50.95;;;31.80;;
44764;SDS011;30484;52.382;5.260;2023-09-18T00:46:04;58.65;;;33.95;;
44764;SDS011;30484;52.382;5.260;2023-09-18T00:48:33;56.45;;;34.75;;
44764;SDS011;30484;52.382;5.260;2023-09-18T00:51:01;58.42;;;34.22;;
44764;SDS011;30484;52.382;5.260;2023-09-18T00:53:33;52.22;;;33.83;;
44764;SDS011;30484;52.382;5.260;2023-09-18T00:56:03;56.75;;;35.90;;
44764;SDS011;30484;52.382;5.260;2023-09-18T00:58:32;62.60;;;36.08;;
44764;SDS011;30484;52.382;5.260;2023-09-18T01:01:02;64.22;;;36.30;;
44764;SDS011;30484;52.382;5.260;2023-09-18T01:03:31;60.60;;;37.30;;
44764;SDS011;30484;52.382;5.260;2023-09-18T01:06:00;64.68;;;36.40;;
44764;SDS011;30484;52.382;5.260;2023-09-18T01:08:29;58.60;;;35.38;;
44764;SDS011;30484;52.382;5.260;2023-09-18T01:11:00;60.17;;;36.83;;
44764;SDS011;30484;52.382;5.260;2023-09-18T01:13:35;62.72;;;36.88;;
44764;SDS011;30484;52.382;5.260;2023-09-18T01:16:12;61.72;;;36.55;;
44764;SDS011;30484;52.382;5.260;2023-09-18T01:18:52;58.15;;;36.78;;
44764;SDS011;30484;52.382;5.260;2023-09-18T01:21:20;54.03;;;35.70;;
44764;SDS011;30484;52.382;5.260;2023-09-18T01:23:50;53.50;;;35.35;;
44764;SDS011;30484;52.382;5.260;2023-09-18T01:26:18;57.20;;;35.63;;
44764;SDS011;30484;52.382;5.260;2023-09-18T01:28:47;56.53;;;37.47;;
44764;SDS011;30484;52.382;5.260;2023-09-18T01:31:16;56.78;;;35.80;;
44764;SDS011;30484;52.382;5.260;2023-09-18T01:33:45;56.72;;;34.88;;
44764;SDS011;30484;52.382;5.260;2023-09-18T01:36:14;53.22;;;33.95;;
44764;SDS011;30484;52.382;5.260;2023-09-18T01:38:46;48.58;;;32.47;;
44764;SDS011;30484;52.382;5.260;2023-09-18T01:41:17;53.20;;;33.63;;
44764;SDS011;30484;52.382;5.260;2023-09-18T01:43:46;49.67;;;31.90;;
44764;SDS011;30484;52.382;5.260;2023-09-18T01:46:14;48.20;;;32.55;;
44764;SDS011;30484;52.382;5.260;2023-09-18T01:48:45;46.53;;;30.73;;
44764;SDS011;30484;52.382;5.260;2023-09-18T01:51:14;48.85;;;31.85;;
44764;SDS011;30484;52.382;5.260;2023-09-18T01:53:43;48.03;;;30.92;;
44764;SDS011;30484;52.382;5.260;2023-09-18T01:56:11;44.50;;;29.45;;
44764;SDS011;30484;52.382;5.260;2023-09-18T01:58:41;48.88;;;30.77;;
44764;SDS011;30484;52.382;5.260;2023-09-18T02:01:09;43.10;;;28.98;;
44764;SDS011;30484;52.382;5.260;2023-09-18T02:03:38;43.03;;;29.98;;
44764;SDS011;30484;52.382;5.260;2023-09-18T02:06:28;44.85;;;28.67;;
44764;SDS011;30484;52.382;5.260;2023-09-18T02:08:57;44.00;;;30.08;;
44764;SDS011;30484;52.382;5.260;2023-09-18T02:11:25;46.13;;;29.65;;
44764;SDS011;30484;52.382;5.260;2023-09-18T02:13:55;43.17;;;28.77;;
44764;SDS011;30484;52.382;5.260;2023-09-18T02:16:24;40.80;;;28.27;;
44764;SDS011;30484;52.382;5.260;2023-09-18T02:18:54;47.10;;;28.08;;
44764;SDS011;30484;52.382;5.260;2023-09-18T02:21:23;45.72;;;29.45;;
44764;SDS011;30484;52.382;5.260;2023-09-18T02:23:52;47.75;;;29.33;;
44764;SDS011;30484;52.382;5.260;2023-09-18T02:26:22;35.70;;;27.00;;
44764;SDS011;30484;52.382;5.260;2023-09-18T02:28:51;41.50;;;28.25;;
44764;SDS011;30484;52.382;5.260;2023-09-18T02:31:22;41.85;;;27.35;;
44764;SDS011;30484;52.382;5.260;2023-09-18T02:33:51;38.95;;;27.80;;
44764;SDS011;30484;52.382;5.260;2023-09-18T02:36:19;39.40;;;26.42;;
44764;SDS011;30484;52.382;5.260;2023-09-18T02:38:47;40.28;;;28.08;;
44764;SDS011;30484;52.382;5.260;2023-09-18T02:41:16;42.88;;;27.92;;
44764;SDS011;30484;52.382;5.260;2023-09-18T02:43:44;39.92;;;26.42;;
44764;SDS011;30484;52.382;5.260;2023-09-18T02:46:13;41.85;;;27.60;;
44764;SDS011;30484;52.382;5.260;2023-09-18T02:48:42;43.15;;;27.00;;
44764;SDS011;30484;52.382;5.260;2023-09-18T02:51:11;37.40;;;25.80;;
44764;SDS011;30484;52.382;5.260;2023-09-18T02:53:39;35.40;;;25.42;;
44764;SDS011;30484;52.382;5.260;2023-09-18T02:56:07;43.17;;;25.13;;
44764;SDS011;30484;52.382;5.260;2023-09-18T02:58:36;34.10;;;24.40;;
44764;SDS011;30484;52.382;5.260;2023-09-18T03:01:06;37.13;;;24.38;;
44764;SDS011;30484;52.382;5.260;2023-09-18T03:03:35;38.08;;;23.85;;
44764;SDS011;30484;52.382;5.260;2023-09-18T03:06:05;39.45;;;23.88;;
44764;SDS011;30484;52.382;5.260;2023-09-18T03:08:34;36.22;;;24.38;;
44764;SDS011;30484;52.382;5.260;2023-09-18T03:11:02;36.75;;;24.27;;
44764;SDS011;30484;52.382;5.260;2023-09-18T03:16:10;36.72;;;24.70;;
44764;SDS011;30484;52.382;5.260;2023-09-18T03:18:39;43.83;;;25.13;;
44764;SDS011;30484;52.382;5.260;2023-09-18T03:21:08;34.78;;;24.10;;
44764;SDS011;30484;52.382;5.260;2023-09-18T03:23:37;41.70;;;24.35;;
44764;SDS011;30484;52.382;5.260;2023-09-18T03:26:05;35.50;;;24.42;;
44764;SDS011;30484;52.382;5.260;2023-09-18T03:28:34;44.67;;;25.45;;
44764;SDS011;30484;52.382;5.260;2023-09-18T03:31:02;36.60;;;24.38;;
44764;SDS011;30484;52.382;5.260;2023-09-18T03:33:32;35.05;;;23.55;;
44764;SDS011;30484;52.382;5.260;2023-09-18T03:36:00;35.33;;;24.17;;
44764;SDS011;30484;52.382;5.260;2023-09-18T03:38:32;37.60;;;24.05;;
44764;SDS011;30484;52.382;5.260;2023-09-18T03:41:02;35.13;;;23.25;;
44764;SDS011;30484;52.382;5.260;2023-09-18T03:43:30;37.05;;;24.85;;
44764;SDS011;30484;52.382;5.260;2023-09-18T03:46:05;35.40;;;23.48;;
44764;SDS011;30484;52.382;5.260;2023-09-18T03:48:35;34.13;;;23.63;;
44764;SDS011;30484;52.382;5.260;2023-09-18T03:51:04;37.45;;;23.13;;
44764;SDS011;30484;52.382;5.260;2023-09-18T03:53:34;36.17;;;24.33;;
44764;SDS011;30484;52.382;5.260;2023-09-18T03:56:03;38.97;;;24.38;;
44764;SDS011;30484;52.382;5.260;2023-09-18T03:58:31;32.05;;;23.90;;
44764;SDS011;30484;52.382;5.260;2023-09-18T04:01:02;36.83;;;24.02;;
44764;SDS011;30484;52.382;5.260;2023-09-18T04:03:30;37.05;;;23.23;;
44764;SDS011;30484;52.382;5.260;2023-09-18T04:05:59;37.20;;;22.92;;
44764;SDS011;30484;52.382;5.260;2023-09-18T04:08:28;40.50;;;23.63;;
44764;SDS011;30484;52.382;5.260;2023-09-18T04:10:58;36.55;;;23.52;;
44764;SDS011;30484;52.382;5.260;2023-09-18T04:13:59;37.33;;;24.73;;
44764;SDS011;30484;52.382;5.260;2023-09-18T04:20:06;33.15;;;24.70;;
44764;SDS011;30484;52.382;5.260;2023-09-18T04:22:42;35.97;;;24.33;;
44764;SDS011;30484;52.382;5.260;2023-09-18T04:25:17;38.08;;;24.45;;
44764;SDS011;30484;52.382;5.260;2023-09-18T04:27:47;36.42;;;23.80;;
44764;SDS011;30484;52.382;5.260;2023-09-18T04:30:18;43.80;;;24.75;;
44764;SDS011;30484;52.382;5.260;2023-09-18T04:32:48;32.60;;;22.48;;
44764;SDS011;30484;52.382;5.260;2023-09-18T04:35:18;35.33;;;23.48;;
44764;SDS011;30484;52.382;5.260;2023-09-18T04:37:46;34.13;;;22.83;;
44764;SDS011;30484;52.382;5.260;2023-09-18T04:40:15;37.15;;;23.17;;
44764;SDS011;30484;52.382;5.260;2023-09-18T04:42:43;32.67;;;22.73;;
44764;SDS011;30484;52.382;5.260;2023-09-18T04:48:20;30.35;;;19.50;;
44764;SDS011;30484;52.382;5.260;2023-09-18T04:50:49;31.25;;;16.73;;
44764;SDS011;30484;52.382;5.260;2023-09-18T04:53:18;17.13;;;10.50;;
44764;SDS011;30484;52.382;5.260;2023-09-18T04:55:48;13.68;;;7.57;;
44764;SDS011;30484;52.382;5.260;2023-09-18T04:58:17;8.13;;;4.38;;
44764;SDS011;30484;52.382;5.260;2023-09-18T05:00:45;7.20;;;3.50;;
44764;SDS011;30484;52.382;5.260;2023-09-18T05:03:15;11.23;;;3.25;;
44764;SDS011;30484;52.382;5.260;2023-09-18T05:05:43;6.93;;;2.95;;
44764;SDS011;30484;52.382;5.260;2023-09-18T05:08:12;6.35;;;3.58;;
44764;SDS011;30484;52.382;5.260;2023-09-18T05:10:40;6.88;;;3.65;;
44764;SDS011;30484;52.382;5.260;2023-09-18T05:13:10;10.98;;;4.18;;
44764;SDS011;30484;52.382;5.260;2023-09-18T05:15:39;22.60;;;4.30;;
44764;SDS011;30484;52.382;5.260;2023-09-18T05:18:08;8.98;;;3.47;;
44764;SDS011;30484;52.382;5.260;2023-09-18T05:20:37;9.63;;;3.92;;
44764;SDS011;30484;52.382;5.260;2023-09-18T05:23:14;7.05;;;4.05;;
44764;SDS011;30484;52.382;5.260;2023-09-18T05:25:47;9.65;;;4.00;;
44764;SDS011;30484;52.382;5.260;2023-09-18T05:28:15;9.82;;;4.90;;
44764;SDS011;30484;52.382;5.260;2023-09-18T05:30:43;9.02;;;4.40;;
44764;SDS011;30484;52.382;5.260;2023-09-18T05:33:14;7.82;;;4.30;;
44764;SDS011;30484;52.382;5.260;2023-09-18T05:35:47;8.35;;;5.00;;
44764;SDS011;30484;52.382;5.260;2023-09-18T05:38:16;7.95;;;5.18;;
44764;SDS011;30484;52.382;5.260;2023-09-18T05:40:45;9.48;;;4.90;;
44764;SDS011;30484;52.382;5.260;2023-09-18T05:43:13;9.05;;;5.00;;
44764;SDS011;30484;52.382;5.260;2023-09-18T05:45:43;10.32;;;5.68;;
44764;SDS011;30484;52.382;5.260;2023-09-18T05:48:11;10.10;;;6.10;;
44764;SDS011;30484;52.382;5.260;2023-09-18T05:50:39;10.98;;;5.93;;
44764;SDS011;30484;52.382;5.260;2023-09-18T05:53:09;12.15;;;6.43;;
44764;SDS011;30484;52.382;5.260;2023-09-18T05:55:38;11.30;;;6.00;;
44764;SDS011;30484;52.382;5.260;2023-09-18T05:58:06;16.95;;;7.07;;
44764;SDS011;30484;52.382;5.260;2023-09-18T06:00:35;11.75;;;7.25;;
44764;SDS011;30484;52.382;5.260;2023-09-18T06:03:04;11.38;;;7.13;;
44764;SDS011;30484;52.382;5.260;2023-09-18T06:05:33;15.13;;;8.02;;
44764;SDS011;30484;52.382;5.260;2023-09-18T06:08:12;13.75;;;8.25;;
44764;SDS011;30484;52.382;5.260;2023-09-18T06:10:42;16.17;;;7.88;;
44764;SDS011;30484;52.382;5.260;2023-09-18T06:13:10;12.85;;;8.25;;
44764;SDS011;30484;52.382;5.260;2023-09-18T06:15:39;13.38;;;7.70;;
44764;SDS011;30484;52.382;5.260;2023-09-18T06:18:07;16.05;;;8.18;;
44764;SDS011;30484;52.382;5.260;2023-09-18T06:20:36;20.45;;;9.05;;
44764;SDS011;30484;52.382;5.260;2023-09-18T06:23:05;14.60;;;8.73;;
44764;SDS011;30484;52.382;5.260;2023-09-18T06:25:35;20.08;;;9.45;;
44764;SDS011;30484;52.382;5.260;2023-09-18T06:28:04;21.90;;;9.68;;
44764;SDS011;30484;52.382;5.260;2023-09-18T06:30:32;20.25;;;10.93;;
44764;SDS011;30484;52.382;5.260;2023-09-18T06:33:03;17.15;;;10.18;;
44764;SDS011;30484;52.382;5.260;2023-09-18T06:35:31;13.73;;;9.82;;
44764;SDS011;30484;52.382;5.260;2023-09-18T06:38:00;14.43;;;10.13;;
44764;SDS011;30484;52.382;5.260;2023-09-18T06:40:29;16.65;;;10.93;;
44764;SDS011;30484;52.382;5.260;2023-09-18T06:43:01;20.33;;;12.05;;
44764;SDS011;30484;52.382;5.260;2023-09-18T06:45:30;20.55;;;11.60;;
44764;SDS011;30484;52.382;5.260;2023-09-18T06:47:59;16.80;;;12.35;;
44764;SDS011;30484;52.382;5.260;2023-09-18T06:50:28;21.60;;;12.80;;
44764;SDS011;30484;52.382;5.260;2023-09-18T06:52:57;19.95;;;12.57;;
44764;SDS011;30484;52.382;5.260;2023-09-18T06:55:25;19.15;;;12.65;;
44764;SDS011;30484;52.382;5.260;2023-09-18T06:57:53;21.67;;;12.93;;
44764;SDS011;30484;52.382;5.260;2023-09-18T07:00:23;21.10;;;13.15;;
44764;SDS011;30484;52.382;5.260;2023-09-18T07:02:51;21.98;;;13.27;;
44764;SDS011;30484;52.382;5.260;2023-09-18T07:05:20;21.67;;;12.77;;
44764;SDS011;30484;52.382;5.260;2023-09-18T07:07:48;21.95;;;12.68;;
44764;SDS011;30484;52.382;5.260;2023-09-18T07:10:16;24.58;;;13.73;;
44764;SDS011;30484;52.382;5.260;2023-09-18T07:12:45;19.90;;;12.93;;
44764;SDS011;30484;52.382;5.260;2023-09-18T07:15:13;21.80;;;13.05;;
44764;SDS011;30484;52.382;5.260;2023-09-18T07:17:45;23.48;;;14.25;;
44764;SDS011;30484;52.382;5.260;2023-09-18T07:20:15;24.92;;;14.20;;
44764;SDS011;30484;52.382;5.260;2023-09-18T07:22:46;21.80;;;14.68;;
44764;SDS011;30484;52.382;5.260;2023-09-18T07:25:14;23.55;;;13.93;;
44764;SDS011;30484;52.382;5.260;2023-09-18T07:27:43;26.02;;;14.63;;
44764;SDS011;30484;52.382;5.260;2023-09-18T07:30:12;24.23;;;14.50;;
44764;SDS011;30484;52.382;5.260;2023-09-18T07:32:47;25.67;;;14.48;;
44764;SDS011;30484;52.382;5.260;2023-09-18T07:35:15;21.90;;;13.85;;
44764;SDS011;30484;52.382;5.260;2023-09-18T07:37:43;21.42;;;13.45;;
44764;SDS011;30484;52.382;5.260;2023-09-18T07:40:13;23.52;;;14.05;;
44764;SDS011;30484;52.382;5.260;2023-09-18T07:42:43;33.20;;;14.27;;
44764;SDS011;30484;52.382;5.260;2023-09-18T07:45:12;21.13;;;12.48;;
44764;SDS011;30484;52.382;5.260;2023-09-18T07:47:40;18.98;;;12.40;;
44764;SDS011;30484;52.382;5.260;2023-09-18T07:50:10;18.95;;;11.77;;
44764;SDS011;30484;52.382;5.260;2023-09-18T07:52:38;18.27;;;10.65;;
44764;SDS011;30484;52.382;5.260;2023-09-18T07:55:07;19.13;;;11.07;;
44764;SDS011;30484;52.382;5.260;2023-09-18T07:57:36;16.90;;;10.18;;
44764;SDS011;30484;52.382;5.260;2023-09-18T08:00:05;17.02;;;9.60;;
44764;SDS011;30484;52.382;5.260;2023-09-18T08:02:38;21.45;;;10.20;;
44764;SDS011;30484;52.382;5.260;2023-09-18T08:05:06;15.35;;;9.60;;
44764;SDS011;30484;52.382;5.260;2023-09-18T08:07:37;16.98;;;9.55;;
44764;SDS011;30484;52.382;5.260;2023-09-18T08:10:07;14.70;;;9.30;;
44764;SDS011;30484;52.382;5.260;2023-09-18T08:12:40;16.95;;;9.00;;
44764;SDS011;30484;52.382;5.260;2023-09-18T08:15:09;14.93;;;9.00;;
44764;SDS011;30484;52.382;5.260;2023-09-18T08:17:37;14.07;;;8.65;;
44764;SDS011;30484;52.382;5.260;2023-09-18T08:20:07;14.93;;;8.93;;
44764;SDS011;30484;52.382;5.260;2023-09-18T08:22:41;13.75;;;9.93;;
44764;SDS011;30484;52.382;5.260;2023-09-18T08:27:43;12.60;;;8.52;;
44764;SDS011;30484;52.382;5.260;2023-09-18T08:30:12;14.70;;;8.15;;
44764;SDS011;30484;52.382;5.260;2023-09-18T08:32:41;11.43;;;8.15;;
44764;SDS011;30484;52.382;5.260;2023-09-18T08:35:10;11.13;;;8.30;;
44764;SDS011;30484;52.382;5.260;2023-09-18T08:37:41;10.55;;;8.30;;
44764;SDS011;30484;52.382;5.260;2023-09-18T08:40:10;12.50;;;8.35;;
44764;SDS011;30484;52.382;5.260;2023-09-18T08:42:44;13.52;;;7.82;;
44764;SDS011;30484;52.382;5.260;2023-09-18T08:45:15;14.23;;;8.00;;
44764;SDS011;30484;52.382;5.260;2023-09-18T08:47:50;15.07;;;8.32;;
44764;SDS011;30484;52.382;5.260;2023-09-18T08:50:20;14.15;;;7.72;;
44764;SDS011;30484;52.382;5.260;2023-09-18T08:52:52;13.45;;;7.60;;
44764;SDS011;30484;52.382;5.260;2023-09-18T08:55:24;12.23;;;7.53;;
44764;SDS011;30484;52.382;5.260;2023-09-18T08:57:59;13.52;;;6.72;;
44764;SDS011;30484;52.382;5.260;2023-09-18T09:00:27;10.00;;;6.78;;
44764;SDS011;30484;52.382;5.260;2023-09-18T09:02:56;10.48;;;6.50;;
44764;SDS011;30484;52.382;5.260;2023-09-18T09:05:25;9.07;;;6.03;;
44764;SDS011;30484;52.382;5.260;2023-09-18T09:07:55;8.90;;;5.80;;
44764;SDS011;30484;52.382;5.260;2023-09-18T09:10:23;11.43;;;6.07;;
44764;SDS011;30484;52.382;5.260;2023-09-18T09:12:54;10.35;;;5.65;;
44764;SDS011;30484;52.382;5.260;2023-09-18T09:15:25;10.10;;;6.30;;
44764;SDS011;30484;52.382;5.260;2023-09-18T09:18:03;12.65;;;5.22;;
44764;SDS011;30484;52.382;5.260;2023-09-18T09:20:34;13.25;;;5.47;;
44764;SDS011;30484;52.382;5.260;2023-09-18T09:23:05;11.90;;;4.93;;
44764;SDS011;30484;52.382;5.260;2023-09-18T09:25:37;10.52;;;4.97;;
44764;SDS011;30484;52.382;5.260;2023-09-18T09:28:12;10.60;;;5.13;;
44764;SDS011;30484;52.382;5.260;2023-09-18T09:30:40;8.18;;;4.75;;
44764;SDS011;30484;52.382;5.260;2023-09-18T09:33:11;8.10;;;5.03;;
44764;SDS011;30484;52.382;5.260;2023-09-18T09:35:40;13.13;;;5.30;;
44764;SDS011;30484;52.382;5.260;2023-09-18T09:38:11;10.73;;;5.00;;
44764;SDS011;30484;52.382;5.260;2023-09-18T09:40:44;8.25;;;4.88;;
44764;SDS011;30484;52.382;5.260;2023-09-18T09:43:13;10.65;;;4.90;;
44764;SDS011;30484;52.382;5.260;2023-09-18T09:45:42;9.25;;;4.35;;
44764;SDS011;30484;52.382;5.260;2023-09-18T09:48:13;8.82;;;4.57;;
44764;SDS011;30484;52.382;5.260;2023-09-18T09:50:43;12.40;;;5.10;;
44764;SDS011;30484;52.382;5.260;2023-09-18T09:53:16;6.95;;;4.40;;
44764;SDS011;30484;52.382;5.260;2023-09-18T09:55:51;7.68;;;4.78;;
44764;SDS011;30484;52.382;5.260;2023-09-18T09:58:26;6.38;;;4.28;;
44764;SDS011;30484;52.382;5.260;2023-09-18T10:00:59;11.60;;;4.47;;
44764;SDS011;30484;52.382;5.260;2023-09-18T10:03:38;9.60;;;4.10;;
44764;SDS011;30484;52.382;5.260;2023-09-18T10:06:06;9.32;;;3.70;;
44764;SDS011;30484;52.382;5.260;2023-09-18T10:08:40;9.15;;;3.47;;
44764;SDS011;30484;52.382;5.260;2023-09-18T10:11:11;12.40;;;3.90;;
44764;SDS011;30484;52.382;5.260;2023-09-18T10:13:46;13.07;;;4.32;;
44764;SDS011;30484;52.382;5.260;2023-09-18T10:16:19;6.90;;;3.72;;
44764;SDS011;30484;52.382;5.260;2023-09-18T10:18:56;10.45;;;3.90;;
44764;SDS011;30484;52.382;5.260;2023-09-18T10:21:37;8.55;;;4.20;;
44764;SDS011;30484;52.382;5.260;2023-09-18T10:24:17;10.45;;;4.07;;
44764;SDS011;30484;52.382;5.260;2023-09-18T10:26:56;7.75;;;3.58;;
44764;SDS011;30484;52.382;5.260;2023-09-18T10:29:27;7.57;;;3.50;;
44764;SDS011;30484;52.382;5.260;2023-09-18T10:32:01;6.03;;;3.38;;
44764;SDS011;30484;52.382;5.260;2023-09-18T10:34:37;9.00;;;3.50;;
44764;SDS011;30484;52.382;5.260;2023-09-18T10:37:06;9.18;;;3.95;;
44764;SDS011;30484;52.382;5.260;2023-09-18T10:39:38;7.85;;;3.00;;
44764;SDS011;30484;52.382;5.260;2023-09-18T10:42:10;7.28;;;3.13;;
44764;SDS011;30484;52.382;5.260;2023-09-18T10:44:47;7.35;;;2.85;;
44764;SDS011;30484;52.382;5.260;2023-09-18T10:47:16;5.55;;;3.03;;
44764;SDS011;30484;52.382;5.260;2023-09-18T10:49:46;6.72;;;2.85;;
44764;SDS011;30484;52.382;5.260;2023-09-18T10:52:16;8.40;;;2.80;;
44764;SDS011;30484;52.382;5.260;2023-09-18T10:54:46;6.43;;;2.60;;
44764;SDS011;30484;52.382;5.260;2023-09-18T10:57:22;8.38;;;3.10;;
44764;SDS011;30484;52.382;5.260;2023-09-18T10:59:51;7.53;;;3.20;;
44764;SDS011;30484;52.382;5.260;2023-09-18T11:02:22;7.80;;;3.28;;
44764;SDS011;30484;52.382;5.260;2023-09-18T11:04:51;5.93;;;3.17;;
44764;SDS011;30484;52.382;5.260;2023-09-18T11:07:21;7.05;;;3.58;;
44764;SDS011;30484;52.382;5.260;2023-09-18T11:09:53;8.05;;;3.20;;
44764;SDS011;30484;52.382;5.260;2023-09-18T11:12:21;7.97;;;3.20;;
44764;SDS011;30484;52.382;5.260;2023-09-18T11:15:24;9.07;;;3.40;;
44764;SDS011;30484;52.382;5.260;2023-09-18T11:17:58;7.50;;;3.20;;
44764;SDS011;30484;52.382;5.260;2023-09-18T11:20:33;8.70;;;3.40;;
44764;SDS011;30484;52.382;5.260;2023-09-18T11:23:09;10.52;;;3.25;;
44764;SDS011;30484;52.382;5.260;2023-09-18T11:25:46;8.48;;;3.05;;
44764;SDS011;30484;52.382;5.260;2023-09-18T11:28:15;9.15;;;3.28;;
44764;SDS011;30484;52.382;5.260;2023-09-18T11:30:52;9.15;;;3.25;;
44764;SDS011;30484;52.382;5.260;2023-09-18T11:33:30;4.45;;;2.60;;
44764;SDS011;30484;52.382;5.260;2023-09-18T11:36:02;6.63;;;2.63;;
44764;SDS011;30484;52.382;5.260;2023-09-18T11:38:34;7.05;;;2.55;;
44764;SDS011;30484;52.382;5.260;2023-09-18T11:41:24;8.45;;;2.85;;
44764;SDS011;30484;52.382;5.260;2023-09-18T11:47:03;6.43;;;2.67;;
44764;SDS011;30484;52.382;5.260;2023-09-18T11:49:40;9.27;;;3.15;;
44764;SDS011;30484;52.382;5.260;2023-09-18T11:52:13;5.20;;;3.00;;
44764;SDS011;30484;52.382;5.260;2023-09-18T11:54:46;7.78;;;3.15;;
44764;SDS011;30484;52.382;5.260;2023-09-18T11:57:18;5.63;;;2.72;;
44764;SDS011;30484;52.382;5.260;2023-09-18T11:59:47;6.60;;;2.90;;
44764;SDS011;30484;52.382;5.260;2023-09-18T12:02:24;8.05;;;2.95;;
44764;SDS011;30484;52.382;5.260;2023-09-18T12:05:05;7.13;;;2.30;;
44764;SDS011;30484;52.382;5.260;2023-09-18T12:07:38;4.85;;;2.75;;
44764;SDS011;30484;52.382;5.260;2023-09-18T12:10:10;8.63;;;2.60;;
44764;SDS011;30484;52.382;5.260;2023-09-18T12:12:42;6.55;;;3.28;;
44764;SDS011;30484;52.382;5.260;2023-09-18T12:15:11;6.53;;;2.70;;
44764;SDS011;30484;52.382;5.260;2023-09-18T12:17:40;5.75;;;3.05;;
44764;SDS011;30484;52.382;5.260;2023-09-18T12:20:14;6.15;;;3.22;;
44764;SDS011;30484;52.382;5.260;2023-09-18T12:26:51;6.22;;;3.05;;
44764;SDS011;30484;52.382;5.260;2023-09-18T12:29:23;5.80;;;3.13;;
44764;SDS011;30484;52.382;5.260;2023-09-18T12:31:57;6.97;;;3.30;;
44764;SDS011;30484;52.382;5.260;2023-09-18T12:34:32;5.53;;;3.40;;
44764;SDS011;30484;52.382;5.260;2023-09-18T12:37:00;7.60;;;3.28;;
44764;SDS011;30484;52.382;5.260;2023-09-18T12:39:31;8.15;;;3.45;;
44764;SDS011;30484;52.382;5.260;2023-09-18T12:42:09;5.18;;;2.42;;
44764;SDS011;30484;52.382;5.260;2023-09-18T12:44:39;8.63;;;3.05;;
44764;SDS011;30484;52.382;5.260;2023-09-18T12:47:08;7.38;;;2.95;;
44764;SDS011;30484;52.382;5.260;2023-09-18T12:49:36;5.80;;;2.50;;
44764;SDS011;30484;52.382;5.260;2023-09-18T12:52:06;7.78;;;2.67;;
44764;SDS011;30484;52.382;5.260;2023-09-18T12:54:38;6.50;;;2.90;;
44764;SDS011;30484;52.382;5.260;2023-09-18T12:57:07;4.82;;;2.70;;
44764;SDS011;30484;52.382;5.260;2023-09-18T12:59:37;8.20;;;2.67;;
44764;SDS011;30484;52.382;5.260;2023-09-18T13:02:12;5.10;;;2.85;;
44764;SDS011;30484;52.382;5.260;2023-09-18T13:04:41;5.30;;;2.70;;
44764;SDS011;30484;52.382;5.260;2023-09-18T13:07:19;8.32;;;3.10;;
44764;SDS011;30484;52.382;5.260;2023-09-18T13:09:57;7.00;;;2.53;;
44764;SDS011;30484;52.382;5.260;2023-09-18T13:12:38;7.38;;;3.20;;
44764;SDS011;30484;52.382;5.260;2023-09-18T13:15:09;4.78;;;2.60;;
44764;SDS011;30484;52.382;5.260;2023-09-18T13:17:39;5.90;;;2.83;;
44764;SDS011;30484;52.382;5.260;2023-09-18T13:20:14;10.45;;;2.80;;
44764;SDS011;30484;52.382;5.260;2023-09-18T13:22:47;6.35;;;2.85;;
44764;SDS011;30484;52.382;5.260;2023-09-18T13:25:20;6.68;;;2.80;;
44764;SDS011;30484;52.382;5.260;2023-09-18T13:27:50;7.75;;;2.50;;
44764;SDS011;30484;52.382;5.260;2023-09-18T13:30:22;11.75;;;2.90;;
44764;SDS011;30484;52.382;5.260;2023-09-18T13:32:51;10.18;;;2.90;;
44764;SDS011;30484;52.382;5.260;2023-09-18T13:35:28;9.27;;;2.63;;
44764;SDS011;30484;52.382;5.260;2023-09-18T13:37:56;9.23;;;2.67;;
44764;SDS011;30484;52.382;5.260;2023-09-18T13:40:28;7.28;;;2.28;;
44764;SDS011;30484;52.382;5.260;2023-09-18T13:42:56;6.80;;;2.60;;
44764;SDS011;30484;52.382;5.260;2023-09-18T13:45:26;8.90;;;2.53;;
44764;SDS011;30484;52.382;5.260;2023-09-18T13:47:55;7.45;;;2.50;;
44764;SDS011;30484;52.382;5.260;2023-09-18T13:50:23;8.00;;;2.25;;
44764;SDS011;30484;52.382;5.260;2023-09-18T13:52:52;6.43;;;2.40;;
44764;SDS011;30484;52.382;5.260;2023-09-18T13:55:20;6.45;;;2.78;;
44764;SDS011;30484;52.382;5.260;2023-09-18T13:57:48;4.95;;;2.42;;
44764;SDS011;30484;52.382;5.260;2023-09-18T14:00:17;6.57;;;2.47;;
44764;SDS011;30484;52.382;5.260;2023-09-18T14:02:48;7.93;;;2.92;;
44764;SDS011;30484;52.382;5.260;2023-09-18T14:05:17;7.47;;;3.00;;
44764;SDS011;30484;52.382;5.260;2023-09-18T14:07:46;9.48;;;3.03;;
44764;SDS011;30484;52.382;5.260;2023-09-18T14:10:15;6.70;;;2.67;;
44764;SDS011;30484;52.382;5.260;2023-09-18T14:12:45;5.13;;;2.90;;
44764;SDS011;30484;52.382;5.260;2023-09-18T14:15:13;11.95;;;2.63;;
44764;SDS011;30484;52.382;5.260;2023-09-18T14:17:41;5.28;;;3.03;;
44764;SDS011;30484;52.382;5.260;2023-09-18T14:20:11;6.00;;;2.67;;
44764;SDS011;30484;52.382;5.260;2023-09-18T14:22:41;4.68;;;2.47;;
44764;SDS011;30484;52.382;5.260;2023-09-18T14:25:09;5.88;;;2.42;;
44764;SDS011;30484;52.382;5.260;2023-09-18T14:27:38;5.63;;;2.50;;
44764;SDS011;30484;52.382;5.260;2023-09-18T14:30:07;8.48;;;2.83;;
44764;SDS011;30484;52.382;5.260;2023-09-18T14:32:37;5.63;;;2.90;;
44764;SDS011;30484;52.382;5.260;2023-09-18T14:35:05;5.45;;;2.88;;
44764;SDS011;30484;52.382;5.260;2023-09-18T14:37:36;9.52;;;3.42;;
44764;SDS011;30484;52.382;5.260;2023-09-18T14:40:05;6.53;;;3.03;;
44764;SDS011;30484;52.382;5.260;2023-09-18T14:42:39;5.35;;;2.63;;
44764;SDS011;30484;52.382;5.260;2023-09-18T14:45:07;4.97;;;3.55;;
44764;SDS011;30484;52.382;5.260;2023-09-18T14:47:39;8.10;;;3.30;;
44764;SDS011;30484;52.382;5.260;2023-09-18T14:50:07;10.43;;;3.08;;
44764;SDS011;30484;52.382;5.260;2023-09-18T14:52:37;5.55;;;2.72;;
44764;SDS011;30484;52.382;5.260;2023-09-18T14:55:05;7.20;;;2.70;;
44764;SDS011;30484;52.382;5.260;2023-09-18T14:57:38;10.57;;;2.67;;
44764;SDS011;30484;52.382;5.260;2023-09-18T15:00:07;7.75;;;2.83;;
44764;SDS011;30484;52.382;5.260;2023-09-18T15:02:40;8.85;;;3.38;;
44764;SDS011;30484;52.382;5.260;2023-09-18T15:05:11;7.05;;;3.10;;
44764;SDS011;30484;52.382;5.260;2023-09-18T15:07:43;7.05;;;2.83;;
44764;SDS011;30484;52.382;5.260;2023-09-18T15:10:11;5.50;;;2.80;;
44764;SDS011;30484;52.382;5.260;2023-09-18T15:12:40;9.90;;;3.17;;